sensor_id;sensor_type;location;lat;lon;timestamp;temperature;humidity
14099;DHT22;7126;48.458;7.930;2023-07-28T00:01:18;19.80;99.90
14099;DHT22;7126;48.458;7.930;2023-07-28T00:03:43;19.80;99.90
14099;DHT22;7126;48.458;7.930;2023-07-28T00:06:09;19.90;99.90
14099;DHT22;7126;48.458;7.930;2023-07-28T00:08:35;19.90;99.90
14099;DHT22;7126;48.458;7.930;2023-07-28T00:11:00;19.90;99.90
14099;DHT22;7126;48.458;7.930;2023-07-28T00:13:26;19.90;99.90
14099;DHT22;7126;48.458;7.930;2023-07-28T00:15:51;19.90;99.90
14099;DHT22;7126;48.458;7.930;2023-07-28T00:18:17;19.90;99.90
14099;DHT22;7126;48.458;7.930;2023-07-28T00:20:43;19.80;99.90
14099;DHT22;7126;48.458;7.930;2023-07-28T00:23:09;19.80;99.90
14099;DHT22;7126;48.458;7.930;2023-07-28T00:25:35;19.80;99.90
14099;DHT22;7126;48.458;7.930;2023-07-28T00:28:00;19.80;99.90
14099;DHT22;7126;48.458;7.930;2023-07-28T00:30:26;19.80;99.90
14099;DHT22;7126;48.458;7.930;2023-07-28T00:32:51;19.80;99.90
14099;DHT22;7126;48.458;7.930;2023-07-28T00:35:17;19.90;99.90
14099;DHT22;7126;48.458;7.930;2023-07-28T00:37:43;19.90;99.90
14099;DHT22;7126;48.458;7.930;2023-07-28T00:40:08;19.90;99.90
14099;DHT22;7126;48.458;7.930;2023-07-28T00:42:34;19.90;99.90
14099;DHT22;7126;48.458;7.930;2023-07-28T00:45:00;19.90;99.90
14099;DHT22;7126;48.458;7.930;2023-07-28T00:47:25;19.90;99.90
14099;DHT22;7126;48.458;7.930;2023-07-28T00:49:51;19.80;99.90
14099;DHT22;7126;48.458;7.930;2023-07-28T00:52:16;19.80;99.90
14099;DHT22;7126;48.458;7.930;2023-07-28T00:54:42;19.80;99.90
14099;DHT22;7126;48.458;7.930;2023-07-28T00:57:07;19.80;99.90
14099;DHT22;7126;48.458;7.930;2023-07-28T00:59:33;19.80;99.90
14099;DHT22;7126;48.458;7.930;2023-07-28T01:01:59;19.80;99.90
14099;DHT22;7126;48.458;7.930;2023-07-28T01:04:25;19.90;99.90
14099;DHT22;7126;48.458;7.930;2023-07-28T01:07:01;19.90;99.90
14099;DHT22;7126;48.458;7.930;2023-07-28T01:09:37;19.90;99.90
14099;DHT22;7126;48.458;7.930;2023-07-28T01:12:07;19.90;99.90
14099;DHT22;7126;48.458;7.930;2023-07-28T01:14:33;19.90;99.90
14099;DHT22;7126;48.458;7.930;2023-07-28T01:16:59;19.90;99.90
14099;DHT22;7126;48.458;7.930;2023-07-28T01:19:24;19.80;99.90
14099;DHT22;7126;48.458;7.930;2023-07-28T01:21:57;19.80;99.90
14099;DHT22;7126;48.458;7.930;2023-07-28T01:27:37;19.70;99.90
14099;DHT22;7126;48.458;7.930;2023-07-28T01:30:03;19.70;99.90
14099;DHT22;7126;48.458;7.930;2023-07-28T01:32:29;19.70;99.90
14099;DHT22;7126;48.458;7.930;2023-07-28T01:34:54;19.70;99.90
14099;DHT22;7126;48.458;7.930;2023-07-28T01:37:20;19.60;99.90
14099;DHT22;7126;48.458;7.930;2023-07-28T01:39:46;19.60;99.90
14099;DHT22;7126;48.458;7.930;2023-07-28T01:42:11;19.50;99.90
14099;DHT22;7126;48.458;7.930;2023-07-28T01:44:37;19.50;99.90
14099;DHT22;7126;48.458;7.930;2023-07-28T01:47:02;19.40;99.90
14099;DHT22;7126;48.458;7.930;2023-07-28T01:49:28;19.40;99.90
14099;DHT22;7126;48.458;7.930;2023-07-28T01:51:53;19.30;99.90
14099;DHT22;7126;48.458;7.930;2023-07-28T01:54:19;19.20;99.90
14099;DHT22;7126;48.458;7.930;2023-07-28T01:56:44;19.10;99.90
14099;DHT22;7126;48.458;7.930;2023-07-28T01:59:10;19.10;99.90
14099;DHT22;7126;48.458;7.930;2023-07-28T02:01:36;19.00;99.90
14099;DHT22;7126;48.458;7.930;2023-07-28T02:04:01;19.00;99.90
14099;DHT22;7126;48.458;7.930;2023-07-28T02:06:27;19.00;99.90
14099;DHT22;7126;48.458;7.930;2023-07-28T02:08:53;18.90;99.90
14099;DHT22;7126;48.458;7.930;2023-07-28T02:11:18;18.90;99.90
14099;DHT22;7126;48.458;7.930;2023-07-28T02:13:44;18.90;99.90
14099;DHT22;7126;48.458;7.930;2023-07-28T02:16:09;18.80;99.90
14099;DHT22;7126;48.458;7.930;2023-07-28T02:18:35;18.90;99.90
14099;DHT22;7126;48.458;7.930;2023-07-28T02:21:01;18.90;99.90
14099;DHT22;7126;48.458;7.930;2023-07-28T02:23:26;19.00;99.90
14099;DHT22;7126;48.458;7.930;2023-07-28T02:25:52;19.00;99.90
14099;DHT22;7126;48.458;7.930;2023-07-28T02:28:17;19.00;99.90
14099;DHT22;7126;48.458;7.930;2023-07-28T02:30:43;19.00;99.90
14099;DHT22;7126;48.458;7.930;2023-07-28T02:33:08;19.00;99.90
14099;DHT22;7126;48.458;7.930;2023-07-28T02:35:34;19.00;99.90
14099;DHT22;7126;48.458;7.930;2023-07-28T02:38:00;18.90;99.90
14099;DHT22;7126;48.458;7.930;2023-07-28T02:40:25;18.90;99.90
14099;DHT22;7126;48.458;7.930;2023-07-28T02:42:51;18.90;99.90
14099;DHT22;7126;48.458;7.930;2023-07-28T02:45:18;18.90;99.90
14099;DHT22;7126;48.458;7.930;2023-07-28T02:47:44;18.90;99.90
14099;DHT22;7126;48.458;7.930;2023-07-28T02:50:09;18.90;99.90
14099;DHT22;7126;48.458;7.930;2023-07-28T02:52:35;19.00;99.90
14099;DHT22;7126;48.458;7.930;2023-07-28T02:55:00;19.00;99.90
14099;DHT22;7126;48.458;7.930;2023-07-28T02:57:26;19.00;99.90
14099;DHT22;7126;48.458;7.930;2023-07-28T02:59:52;19.10;99.90
14099;DHT22;7126;48.458;7.930;2023-07-28T03:02:17;19.10;99.90
14099;DHT22;7126;48.458;7.930;2023-07-28T03:04:43;19.10;99.90
14099;DHT22;7126;48.458;7.930;2023-07-28T03:07:08;19.20;99.90
14099;DHT22;7126;48.458;7.930;2023-07-28T03:09:34;19.20;99.90
14099;DHT22;7126;48.458;7.930;2023-07-28T03:12:00;19.30;99.90
14099;DHT22;7126;48.458;7.930;2023-07-28T03:14:25;19.30;99.90
14099;DHT22;7126;48.458;7.930;2023-07-28T03:16:52;19.30;99.90
14099;DHT22;7126;48.458;7.930;2023-07-28T03:19:17;19.30;99.90
14099;DHT22;7126;48.458;7.930;2023-07-28T03:21:43;19.30;99.90
14099;DHT22;7126;48.458;7.930;2023-07-28T03:24:08;19.30;99.90
14099;DHT22;7126;48.458;7.930;2023-07-28T03:26:34;19.30;99.90
14099;DHT22;7126;48.458;7.930;2023-07-28T03:28:59;19.30;99.90
14099;DHT22;7126;48.458;7.930;2023-07-28T03:31:25;19.40;99.90
14099;DHT22;7126;48.458;7.930;2023-07-28T03:33:50;19.30;99.90
14099;DHT22;7126;48.458;7.930;2023-07-28T03:36:16;19.30;99.90
14099;DHT22;7126;48.458;7.930;2023-07-28T03:38:41;19.30;99.90
14099;DHT22;7126;48.458;7.930;2023-07-28T03:41:08;19.30;99.90
14099;DHT22;7126;48.458;7.930;2023-07-28T03:43:33;19.30;99.90
14099;DHT22;7126;48.458;7.930;2023-07-28T03:45:59;19.20;99.90
14099;DHT22;7126;48.458;7.930;2023-07-28T03:48:25;19.20;99.90
14099;DHT22;7126;48.458;7.930;2023-07-28T03:50:50;19.20;99.90
14099;DHT22;7126;48.458;7.930;2023-07-28T03:53:16;19.20;99.90
14099;DHT22;7126;48.458;7.930;2023-07-28T03:55:41;19.20;99.90
14099;DHT22;7126;48.458;7.930;2023-07-28T03:58:07;19.20;99.90
14099;DHT22;7126;48.458;7.930;2023-07-28T04:00:33;19.20;99.90
14099;DHT22;7126;48.458;7.930;2023-07-28T04:02:58;19.20;99.90
14099;DHT22;7126;48.458;7.930;2023-07-28T04:05:24;19.30;99.90
14099;DHT22;7126;48.458;7.930;2023-07-28T04:07:49;19.20;99.90
14099;DHT22;7126;48.458;7.930;2023-07-28T04:10:15;19.20;99.90
14099;DHT22;7126;48.458;7.930;2023-07-28T04:12:41;19.30;99.90
14099;DHT22;7126;48.458;7.930;2023-07-28T04:15:07;19.20;99.90
14099;DHT22;7126;48.458;7.930;2023-07-28T04:17:33;19.20;99.90
14099;DHT22;7126;48.458;7.930;2023-07-28T04:19:58;19.20;99.90
14099;DHT22;7126;48.458;7.930;2023-07-28T04:22:24;19.20;99.90
14099;DHT22;7126;48.458;7.930;2023-07-28T04:24:49;19.10;99.90
14099;DHT22;7126;48.458;7.930;2023-07-28T04:27:15;19.10;99.90
14099;DHT22;7126;48.458;7.930;2023-07-28T04:29:41;19.10;99.90
14099;DHT22;7126;48.458;7.930;2023-07-28T04:32:07;19.10;99.90
14099;DHT22;7126;48.458;7.930;2023-07-28T04:34:33;19.10;99.90
14099;DHT22;7126;48.458;7.930;2023-07-28T04:36:59;19.10;99.90
14099;DHT22;7126;48.458;7.930;2023-07-28T04:39:24;19.10;99.90
14099;DHT22;7126;48.458;7.930;2023-07-28T04:41:50;19.20;99.90
14099;DHT22;7126;48.458;7.930;2023-07-28T04:44:16;19.20;99.90
14099;DHT22;7126;48.458;7.930;2023-07-28T04:46:42;19.20;99.90
14099;DHT22;7126;48.458;7.930;2023-07-28T04:49:07;19.20;99.90
14099;DHT22;7126;48.458;7.930;2023-07-28T04:51:33;19.20;99.90
14099;DHT22;7126;48.458;7.930;2023-07-28T04:53:58;19.20;99.90
14099;DHT22;7126;48.458;7.930;2023-07-28T04:56:24;19.20;99.90
14099;DHT22;7126;48.458;7.930;2023-07-28T04:58:49;19.20;99.90
14099;DHT22;7126;48.458;7.930;2023-07-28T05:01:15;19.10;99.90
14099;DHT22;7126;48.458;7.930;2023-07-28T05:03:41;19.10;99.90
14099;DHT22;7126;48.458;7.930;2023-07-28T05:06:06;19.10;99.90
14099;DHT22;7126;48.458;7.930;2023-07-28T05:08:32;19.00;99.90
14099;DHT22;7126;48.458;7.930;2023-07-28T05:10:58;19.00;99.90
14099;DHT22;7126;48.458;7.930;2023-07-28T05:13:23;19.10;99.90
14099;DHT22;7126;48.458;7.930;2023-07-28T05:15:49;19.10;99.90
14099;DHT22;7126;48.458;7.930;2023-07-28T05:18:14;19.10;99.90
14099;DHT22;7126;48.458;7.930;2023-07-28T05:20:40;19.10;99.90
14099;DHT22;7126;48.458;7.930;2023-07-28T05:23:05;19.10;99.90
14099;DHT22;7126;48.458;7.930;2023-07-28T05:25:31;19.20;99.90
14099;DHT22;7126;48.458;7.930;2023-07-28T05:27:56;19.20;99.90
14099;DHT22;7126;48.458;7.930;2023-07-28T05:30:22;19.20;99.90
14099;DHT22;7126;48.458;7.930;2023-07-28T05:32:47;19.30;99.90
14099;DHT22;7126;48.458;7.930;2023-07-28T05:35:14;19.20;99.90
14099;DHT22;7126;48.458;7.930;2023-07-28T05:37:40;19.10;99.90
14099;DHT22;7126;48.458;7.930;2023-07-28T05:40:06;19.10;99.90
14099;DHT22;7126;48.458;7.930;2023-07-28T05:42:31;19.10;99.90
14099;DHT22;7126;48.458;7.930;2023-07-28T05:44:57;19.10;99.90
14099;DHT22;7126;48.458;7.930;2023-07-28T05:47:24;19.10;99.90
14099;DHT22;7126;48.458;7.930;2023-07-28T05:49:49;19.10;99.90
14099;DHT22;7126;48.458;7.930;2023-07-28T05:52:15;19.10;99.90
14099;DHT22;7126;48.458;7.930;2023-07-28T05:54:40;19.00;99.90
14099;DHT22;7126;48.458;7.930;2023-07-28T05:57:06;19.00;99.90
14099;DHT22;7126;48.458;7.930;2023-07-28T05:59:31;19.00;99.90
14099;DHT22;7126;48.458;7.930;2023-07-28T06:01:57;19.00;99.90
14099;DHT22;7126;48.458;7.930;2023-07-28T06:04:23;19.00;99.90
14099;DHT22;7126;48.458;7.930;2023-07-28T06:06:49;19.00;99.90
14099;DHT22;7126;48.458;7.930;2023-07-28T06:09:14;19.00;99.90
14099;DHT22;7126;48.458;7.930;2023-07-28T06:11:40;18.90;99.90
14099;DHT22;7126;48.458;7.930;2023-07-28T06:14:05;19.00;99.90
14099;DHT22;7126;48.458;7.930;2023-07-28T06:16:31;18.90;99.90
14099;DHT22;7126;48.458;7.930;2023-07-28T06:18:56;18.90;99.90
14099;DHT22;7126;48.458;7.930;2023-07-28T06:21:22;18.90;99.90
14099;DHT22;7126;48.458;7.930;2023-07-28T06:23:47;18.90;99.90
14099;DHT22;7126;48.458;7.930;2023-07-28T06:26:13;18.90;99.90
14099;DHT22;7126;48.458;7.930;2023-07-28T06:28:38;18.90;99.90
14099;DHT22;7126;48.458;7.930;2023-07-28T06:31:04;18.80;99.90
14099;DHT22;7126;48.458;7.930;2023-07-28T06:33:30;18.80;99.90
14099;DHT22;7126;48.458;7.930;2023-07-28T06:35:55;18.90;99.90
14099;DHT22;7126;48.458;7.930;2023-07-28T06:38:21;18.80;99.90
14099;DHT22;7126;48.458;7.930;2023-07-28T06:40:46;18.90;99.90
14099;DHT22;7126;48.458;7.930;2023-07-28T06:43:12;18.90;99.90
14099;DHT22;7126;48.458;7.930;2023-07-28T06:45:38;18.90;99.90
14099;DHT22;7126;48.458;7.930;2023-07-28T06:48:04;18.90;99.90
14099;DHT22;7126;48.458;7.930;2023-07-28T06:50:29;18.90;99.90
14099;DHT22;7126;48.458;7.930;2023-07-28T06:52:55;18.90;99.90
14099;DHT22;7126;48.458;7.930;2023-07-28T06:55:21;19.00;99.90
14099;DHT22;7126;48.458;7.930;2023-07-28T06:57:47;19.00;99.90
14099;DHT22;7126;48.458;7.930;2023-07-28T07:00:13;19.00;99.90
14099;DHT22;7126;48.458;7.930;2023-07-28T07:02:40;19.00;99.90
14099;DHT22;7126;48.458;7.930;2023-07-28T07:05:06;19.10;99.90
14099;DHT22;7126;48.458;7.930;2023-07-28T07:07:32;19.10;99.90
14099;DHT22;7126;48.458;7.930;2023-07-28T07:09:57;19.20;99.90
14099;DHT22;7126;48.458;7.930;2023-07-28T07:12:23;19.20;99.90
14099;DHT22;7126;48.458;7.930;2023-07-28T07:14:49;19.20;99.90
14099;DHT22;7126;48.458;7.930;2023-07-28T07:17:14;19.20;99.90
14099;DHT22;7126;48.458;7.930;2023-07-28T07:19:40;19.30;99.90
14099;DHT22;7126;48.458;7.930;2023-07-28T07:22:06;19.40;99.90
14099;DHT22;7126;48.458;7.930;2023-07-28T07:24:32;19.40;99.90
14099;DHT22;7126;48.458;7.930;2023-07-28T07:26:58;19.50;99.90
14099;DHT22;7126;48.458;7.930;2023-07-28T07:29:23;19.60;99.90
14099;DHT22;7126;48.458;7.930;2023-07-28T07:31:49;19.70;99.90
14099;DHT22;7126;48.458;7.930;2023-07-28T07:34:20;19.70;99.90
14099;DHT22;7126;48.458;7.930;2023-07-28T07:36:46;19.80;99.90
14099;DHT22;7126;48.458;7.930;2023-07-28T07:39:11;19.90;99.90
14099;DHT22;7126;48.458;7.930;2023-07-28T07:41:37;19.90;99.90
14099;DHT22;7126;48.458;7.930;2023-07-28T07:44:02;19.90;99.90
14099;DHT22;7126;48.458;7.930;2023-07-28T07:46:28;20.00;99.90
14099;DHT22;7126;48.458;7.930;2023-07-28T07:48:53;20.00;99.90
14099;DHT22;7126;48.458;7.930;2023-07-28T07:51:19;20.00;99.90
14099;DHT22;7126;48.458;7.930;2023-07-28T07:53:44;20.10;99.90
14099;DHT22;7126;48.458;7.930;2023-07-28T07:56:10;20.20;99.90
14099;DHT22;7126;48.458;7.930;2023-07-28T07:58:36;20.30;99.90
14099;DHT22;7126;48.458;7.930;2023-07-28T08:01:02;20.40;99.90
14099;DHT22;7126;48.458;7.930;2023-07-28T08:03:28;20.50;99.90
14099;DHT22;7126;48.458;7.930;2023-07-28T08:05:54;20.60;99.90
14099;DHT22;7126;48.458;7.930;2023-07-28T08:08:20;20.70;99.90
14099;DHT22;7126;48.458;7.930;2023-07-28T08:10:47;20.80;99.90
14099;DHT22;7126;48.458;7.930;2023-07-28T08:13:13;20.80;99.90
14099;DHT22;7126;48.458;7.930;2023-07-28T08:15:38;20.90;99.90
14099;DHT22;7126;48.458;7.930;2023-07-28T08:18:04;20.90;99.90
14099;DHT22;7126;48.458;7.930;2023-07-28T08:20:30;21.00;99.90
14099;DHT22;7126;48.458;7.930;2023-07-28T08:22:55;21.10;99.90
14099;DHT22;7126;48.458;7.930;2023-07-28T08:25:21;21.10;99.90
14099;DHT22;7126;48.458;7.930;2023-07-28T08:27:49;21.20;99.90
14099;DHT22;7126;48.458;7.930;2023-07-28T08:30:15;21.20;99.90
14099;DHT22;7126;48.458;7.930;2023-07-28T08:32:43;21.30;99.90
14099;DHT22;7126;48.458;7.930;2023-07-28T08:35:10;21.30;99.90
14099;DHT22;7126;48.458;7.930;2023-07-28T08:37:35;21.40;99.90
14099;DHT22;7126;48.458;7.930;2023-07-28T08:40:01;21.50;99.90
14099;DHT22;7126;48.458;7.930;2023-07-28T08:42:30;21.50;99.90
14099;DHT22;7126;48.458;7.930;2023-07-28T08:44:55;21.60;99.90
14099;DHT22;7126;48.458;7.930;2023-07-28T08:47:21;21.60;99.90
14099;DHT22;7126;48.458;7.930;2023-07-28T08:49:47;21.60;99.90
14099;DHT22;7126;48.458;7.930;2023-07-28T08:52:16;21.70;99.90
14099;DHT22;7126;48.458;7.930;2023-07-28T08:54:41;21.70;99.90
14099;DHT22;7126;48.458;7.930;2023-07-28T08:57:09;21.80;99.90
14099;DHT22;7126;48.458;7.930;2023-07-28T08:59:35;22.00;99.90
14099;DHT22;7126;48.458;7.930;2023-07-28T09:02:02;22.10;99.90
14099;DHT22;7126;48.458;7.930;2023-07-28T09:04:27;22.10;99.90
14099;DHT22;7126;48.458;7.930;2023-07-28T09:06:53;22.20;99.90
14099;DHT22;7126;48.458;7.930;2023-07-28T09:09:21;22.20;99.90
14099;DHT22;7126;48.458;7.930;2023-07-28T09:11:52;22.20;99.90
14099;DHT22;7126;48.458;7.930;2023-07-28T09:14:20;22.20;99.90
14099;DHT22;7126;48.458;7.930;2023-07-28T09:16:47;22.20;99.90
14099;DHT22;7126;48.458;7.930;2023-07-28T09:19:13;22.20;99.90
14099;DHT22;7126;48.458;7.930;2023-07-28T09:21:41;22.20;99.90
14099;DHT22;7126;48.458;7.930;2023-07-28T09:24:09;22.20;99.90
14099;DHT22;7126;48.458;7.930;2023-07-28T09:26:46;22.20;99.90
14099;DHT22;7126;48.458;7.930;2023-07-28T09:29:17;22.30;99.90
14099;DHT22;7126;48.458;7.930;2023-07-28T09:31:47;22.40;99.90
14099;DHT22;7126;48.458;7.930;2023-07-28T09:34:24;22.40;99.90
14099;DHT22;7126;48.458;7.930;2023-07-28T09:36:49;22.40;99.90
14099;DHT22;7126;48.458;7.930;2023-07-28T09:39:15;22.50;99.90
14099;DHT22;7126;48.458;7.930;2023-07-28T09:41:42;22.50;99.90
14099;DHT22;7126;48.458;7.930;2023-07-28T09:44:08;22.50;99.90
14099;DHT22;7126;48.458;7.930;2023-07-28T09:46:34;22.40;99.90
14099;DHT22;7126;48.458;7.930;2023-07-28T09:49:04;22.40;99.90
14099;DHT22;7126;48.458;7.930;2023-07-28T09:51:31;22.40;99.90
14099;DHT22;7126;48.458;7.930;2023-07-28T09:54:05;22.40;99.90
14099;DHT22;7126;48.458;7.930;2023-07-28T09:56:32;22.40;99.90
14099;DHT22;7126;48.458;7.930;2023-07-28T09:58:59;22.40;99.90
14099;DHT22;7126;48.458;7.930;2023-07-28T10:01:27;22.40;99.90
14099;DHT22;7126;48.458;7.930;2023-07-28T10:03:53;22.40;99.90
14099;DHT22;7126;48.458;7.930;2023-07-28T10:06:19;22.40;99.90
14099;DHT22;7126;48.458;7.930;2023-07-28T10:08:46;22.40;99.90
14099;DHT22;7126;48.458;7.930;2023-07-28T10:11:12;22.50;99.90
14099;DHT22;7126;48.458;7.930;2023-07-28T10:13:45;22.50;99.90
14099;DHT22;7126;48.458;7.930;2023-07-28T10:16:11;22.60;99.90
14099;DHT22;7126;48.458;7.930;2023-07-28T10:18:40;22.60;99.90
14099;DHT22;7126;48.458;7.930;2023-07-28T10:21:10;22.60;99.90
14099;DHT22;7126;48.458;7.930;2023-07-28T10:23:41;22.70;99.90
14099;DHT22;7126;48.458;7.930;2023-07-28T10:26:06;22.60;99.90
14099;DHT22;7126;48.458;7.930;2023-07-28T10:28:37;22.60;99.90
14099;DHT22;7126;48.458;7.930;2023-07-28T10:31:09;22.60;99.90
14099;DHT22;7126;48.458;7.930;2023-07-28T10:33:40;22.70;99.90
14099;DHT22;7126;48.458;7.930;2023-07-28T10:39:23;22.70;99.90
14099;DHT22;7126;48.458;7.930;2023-07-28T10:42:08;22.70;99.90
14099;DHT22;7126;48.458;7.930;2023-07-28T10:44:36;22.70;99.90
14099;DHT22;7126;48.458;7.930;2023-07-28T10:47:07;22.80;99.90
14099;DHT22;7126;48.458;7.930;2023-07-28T10:49:34;22.80;99.90
14099;DHT22;7126;48.458;7.930;2023-07-28T10:52:00;22.90;99.90
14099;DHT22;7126;48.458;7.930;2023-07-28T10:54:25;22.90;99.90
14099;DHT22;7126;48.458;7.930;2023-07-28T10:56:52;22.90;99.90
14099;DHT22;7126;48.458;7.930;2023-07-28T10:59:18;23.00;99.90
14099;DHT22;7126;48.458;7.930;2023-07-28T11:01:43;23.10;99.90
14099;DHT22;7126;48.458;7.930;2023-07-28T11:04:15;23.20;99.90
14099;DHT22;7126;48.458;7.930;2023-07-28T11:06:43;23.20;99.90
14099;DHT22;7126;48.458;7.930;2023-07-28T11:09:10;23.20;99.90
14099;DHT22;7126;48.458;7.930;2023-07-28T11:11:37;23.30;99.90
14099;DHT22;7126;48.458;7.930;2023-07-28T11:14:05;23.40;99.90
14099;DHT22;7126;48.458;7.930;2023-07-28T11:16:33;23.40;99.90
14099;DHT22;7126;48.458;7.930;2023-07-28T11:19:03;23.40;99.90
14099;DHT22;7126;48.458;7.930;2023-07-28T11:21:36;23.30;99.90
14099;DHT22;7126;48.458;7.930;2023-07-28T11:24:03;23.20;99.90
14099;DHT22;7126;48.458;7.930;2023-07-28T11:26:28;23.20;99.90
14099;DHT22;7126;48.458;7.930;2023-07-28T11:28:54;23.10;99.90
14099;DHT22;7126;48.458;7.930;2023-07-28T11:31:23;23.00;99.90
14099;DHT22;7126;48.458;7.930;2023-07-28T11:33:50;22.90;99.90
14099;DHT22;7126;48.458;7.930;2023-07-28T11:36:22;22.90;99.90
14099;DHT22;7126;48.458;7.930;2023-07-28T11:38:48;22.90;99.90
14099;DHT22;7126;48.458;7.930;2023-07-28T11:41:15;22.90;99.90
14099;DHT22;7126;48.458;7.930;2023-07-28T11:43:40;22.80;99.90
14099;DHT22;7126;48.458;7.930;2023-07-28T11:46:34;22.80;99.90
14099;DHT22;7126;48.458;7.930;2023-07-28T11:49:10;22.80;99.90
14099;DHT22;7126;48.458;7.930;2023-07-28T11:51:44;22.70;99.90
14099;DHT22;7126;48.458;7.930;2023-07-28T11:54:17;22.60;99.90
14099;DHT22;7126;48.458;7.930;2023-07-28T11:56:47;22.60;99.90
14099;DHT22;7126;48.458;7.930;2023-07-28T11:59:18;22.50;99.90
14099;DHT22;7126;48.458;7.930;2023-07-28T12:01:58;22.50;99.90
14099;DHT22;7126;48.458;7.930;2023-07-28T12:04:28;22.30;99.90
14099;DHT22;7126;48.458;7.930;2023-07-28T12:07:08;22.20;99.90
14099;DHT22;7126;48.458;7.930;2023-07-28T12:12:23;22.10;99.90
14099;DHT22;7126;48.458;7.930;2023-07-28T12:14:50;22.00;99.90
14099;DHT22;7126;48.458;7.930;2023-07-28T12:17:24;22.00;99.90
14099;DHT22;7126;48.458;7.930;2023-07-28T12:22:25;22.00;99.90
14099;DHT22;7126;48.458;7.930;2023-07-28T12:24:51;22.00;99.90
14099;DHT22;7126;48.458;7.930;2023-07-28T12:27:16;22.00;99.90
14099;DHT22;7126;48.458;7.930;2023-07-28T12:29:42;22.00;99.90
14099;DHT22;7126;48.458;7.930;2023-07-28T12:32:08;22.00;99.90
14099;DHT22;7126;48.458;7.930;2023-07-28T12:34:34;22.00;99.90
14099;DHT22;7126;48.458;7.930;2023-07-28T12:37:00;22.00;99.90
14099;DHT22;7126;48.458;7.930;2023-07-28T12:39:25;22.00;99.90
14099;DHT22;7126;48.458;7.930;2023-07-28T12:41:51;22.00;99.90
14099;DHT22;7126;48.458;7.930;2023-07-28T12:44:19;22.00;99.90
14099;DHT22;7126;48.458;7.930;2023-07-28T12:46:45;21.90;99.90
14099;DHT22;7126;48.458;7.930;2023-07-28T12:49:11;21.90;99.90
14099;DHT22;7126;48.458;7.930;2023-07-28T12:51:36;21.80;99.90
14099;DHT22;7126;48.458;7.930;2023-07-28T12:54:02;21.70;99.90
14099;DHT22;7126;48.458;7.930;2023-07-28T12:56:28;21.60;99.90
14099;DHT22;7126;48.458;7.930;2023-07-28T12:58:53;21.50;99.90
14099;DHT22;7126;48.458;7.930;2023-07-28T13:01:19;21.60;99.90
14099;DHT22;7126;48.458;7.930;2023-07-28T13:03:45;21.70;99.90
14099;DHT22;7126;48.458;7.930;2023-07-28T13:06:10;21.70;99.90
14099;DHT22;7126;48.458;7.930;2023-07-28T13:08:36;21.70;99.90
14099;DHT22;7126;48.458;7.930;2023-07-28T13:11:01;21.80;99.90
14099;DHT22;7126;48.458;7.930;2023-07-28T13:13:28;21.80;99.90
14099;DHT22;7126;48.458;7.930;2023-07-28T13:15:55;21.90;99.90
14099;DHT22;7126;48.458;7.930;2023-07-28T13:18:21;22.00;99.90
14099;DHT22;7126;48.458;7.930;2023-07-28T13:20:46;22.20;99.90
14099;DHT22;7126;48.458;7.930;2023-07-28T13:23:12;22.30;99.90
14099;DHT22;7126;48.458;7.930;2023-07-28T13:25:37;22.40;99.90
14099;DHT22;7126;48.458;7.930;2023-07-28T13:28:04;22.40;99.90
14099;DHT22;7126;48.458;7.930;2023-07-28T13:30:29;22.40;99.90
14099;DHT22;7126;48.458;7.930;2023-07-28T13:32:55;22.40;99.90
14099;DHT22;7126;48.458;7.930;2023-07-28T13:35:21;22.40;99.90
14099;DHT22;7126;48.458;7.930;2023-07-28T13:37:47;22.40;99.90
14099;DHT22;7126;48.458;7.930;2023-07-28T13:40:12;22.30;99.90
14099;DHT22;7126;48.458;7.930;2023-07-28T13:42:38;22.30;99.90
14099;DHT22;7126;48.458;7.930;2023-07-28T13:45:04;22.30;99.90
14099;DHT22;7126;48.458;7.930;2023-07-28T13:47:29;22.30;99.90
14099;DHT22;7126;48.458;7.930;2023-07-28T13:49:55;22.30;99.90
14099;DHT22;7126;48.458;7.930;2023-07-28T13:52:20;22.30;99.90
14099;DHT22;7126;48.458;7.930;2023-07-28T13:54:46;22.30;99.90
14099;DHT22;7126;48.458;7.930;2023-07-28T13:57:11;22.30;99.90
14099;DHT22;7126;48.458;7.930;2023-07-28T13:59:38;22.40;99.90
14099;DHT22;7126;48.458;7.930;2023-07-28T14:02:04;22.40;99.90
14099;DHT22;7126;48.458;7.930;2023-07-28T14:04:29;22.40;99.90
14099;DHT22;7126;48.458;7.930;2023-07-28T14:06:55;22.40;99.90
14099;DHT22;7126;48.458;7.930;2023-07-28T14:09:20;22.40;99.90
14099;DHT22;7126;48.458;7.930;2023-07-28T14:11:46;22.40;99.90
14099;DHT22;7126;48.458;7.930;2023-07-28T14:14:11;22.50;99.90
14099;DHT22;7126;48.458;7.930;2023-07-28T14:16:37;22.40;99.90
14099;DHT22;7126;48.458;7.930;2023-07-28T14:19:02;22.50;99.90
14099;DHT22;7126;48.458;7.930;2023-07-28T14:21:29;22.50;99.90
14099;DHT22;7126;48.458;7.930;2023-07-28T14:23:54;22.40;99.90
14099;DHT22;7126;48.458;7.930;2023-07-28T14:26:20;22.30;99.90
14099;DHT22;7126;48.458;7.930;2023-07-28T14:28:45;22.30;99.90
14099;DHT22;7126;48.458;7.930;2023-07-28T14:31:11;22.20;99.90
14099;DHT22;7126;48.458;7.930;2023-07-28T14:33:36;22.20;99.90
14099;DHT22;7126;48.458;7.930;2023-07-28T14:36:02;22.20;99.90
14099;DHT22;7126;48.458;7.930;2023-07-28T14:38:28;22.20;99.90
14099;DHT22;7126;48.458;7.930;2023-07-28T14:40:53;22.20;99.90
14099;DHT22;7126;48.458;7.930;2023-07-28T14:43:19;22.20;99.90
14099;DHT22;7126;48.458;7.930;2023-07-28T14:45:45;22.20;99.90
14099;DHT22;7126;48.458;7.930;2023-07-28T14:48:10;22.10;99.90
14099;DHT22;7126;48.458;7.930;2023-07-28T14:50:36;22.10;99.90
14099;DHT22;7126;48.458;7.930;2023-07-28T14:53:02;22.10;99.90
14099;DHT22;7126;48.458;7.930;2023-07-28T14:55:27;22.10;99.90
14099;DHT22;7126;48.458;7.930;2023-07-28T14:57:53;22.10;99.90
14099;DHT22;7126;48.458;7.930;2023-07-28T15:00:19;22.10;99.90
14099;DHT22;7126;48.458;7.930;2023-07-28T15:02:44;22.00;99.90
14099;DHT22;7126;48.458;7.930;2023-07-28T15:05:10;22.10;99.90
14099;DHT22;7126;48.458;7.930;2023-07-28T15:07:36;22.10;99.90
14099;DHT22;7126;48.458;7.930;2023-07-28T15:10:02;22.00;99.90
14099;DHT22;7126;48.458;7.930;2023-07-28T15:12:28;21.90;99.90
14099;DHT22;7126;48.458;7.930;2023-07-28T15:14:54;21.90;99.90
14099;DHT22;7126;48.458;7.930;2023-07-28T15:17:19;22.00;99.90
14099;DHT22;7126;48.458;7.930;2023-07-28T15:19:45;22.00;99.90
14099;DHT22;7126;48.458;7.930;2023-07-28T15:22:11;22.00;99.90
14099;DHT22;7126;48.458;7.930;2023-07-28T15:24:36;22.00;99.90
14099;DHT22;7126;48.458;7.930;2023-07-28T15:27:02;21.90;99.90
14099;DHT22;7126;48.458;7.930;2023-07-28T15:29:27;21.90;99.90
14099;DHT22;7126;48.458;7.930;2023-07-28T15:31:53;21.80;99.90
14099;DHT22;7126;48.458;7.930;2023-07-28T15:34:20;21.70;99.90
14099;DHT22;7126;48.458;7.930;2023-07-28T15:36:45;21.70;99.90
14099;DHT22;7126;48.458;7.930;2023-07-28T15:39:11;21.60;99.90
14099;DHT22;7126;48.458;7.930;2023-07-28T15:41:36;21.50;99.90
14099;DHT22;7126;48.458;7.930;2023-07-28T15:44:02;21.50;99.90
14099;DHT22;7126;48.458;7.930;2023-07-28T15:46:28;21.40;99.90
14099;DHT22;7126;48.458;7.930;2023-07-28T15:48:53;21.40;99.90
14099;DHT22;7126;48.458;7.930;2023-07-28T15:51:19;21.40;99.90